Keswick, Iowa
Current Conditions -  °F | °C
As of 4:55 AM on Friday 24 Oct 2014 (Local Time) from KOOA Reporting Station
Light Rain Light Rain  
Wind Chill: 52°   Ceiling: 100
Heat Index: 52°   Visibility: 0.25mi
Dew Point: 51°   Wind: 7mph
Humidity: 98%   Direction: 220°SW
Pressure: 30.04"   Gusts: NA
Location:  41.45°N, 92.24°W
Report Text: KOOA 240955Z AUTO 22006KT 1/4SM -RA OVC001 11/11 A3004 RMK AO2 T01100107
Loading
Personal Weather Stations






























Interactive Weather Map
Tropical Storm Tracking
New forecast layout! Learn more

10-Day Weather Forecast

Advertisements
Track Severe Weather on mobile